createdAt,value
2017-11-06T00:01:33.624Z,10.87
2017-11-06T00:04:01.092Z,7.93
2017-11-06T00:06:28.549Z,9.43
2017-11-06T00:08:56.037Z,10.40
2017-11-06T00:11:24.266Z,10.00
2017-11-06T00:13:51.762Z,10.60
2017-11-06T00:16:19.244Z,10.67
2017-11-06T00:18:46.701Z,11.67
2017-11-06T00:21:14.965Z,10.17
2017-11-06T00:23:42.446Z,10.70
2017-11-06T00:26:10.703Z,9.57
2017-11-06T00:28:38.162Z,11.80
2017-11-06T00:31:05.637Z,10.20
2017-11-06T00:33:33.124Z,10.67
2017-11-06T00:36:01.404Z,11.30
2017-11-06T00:38:29.685Z,11.87
2017-11-06T00:40:57.172Z,11.00
2017-11-06T00:43:24.654Z,9.57
2017-11-06T00:45:52.124Z,10.87
2017-11-06T00:48:19.626Z,11.33
2017-11-06T00:50:47.880Z,10.93
2017-11-06T00:53:15.351Z,10.20
2017-11-06T00:55:42.807Z,11.20
2017-11-06T00:58:10.304Z,11.57
2017-11-06T01:00:38.593Z,10.53
2017-11-06T01:03:06.040Z,11.27
2017-11-06T01:05:34.314Z,11.23
2017-11-06T01:08:01.782Z,11.00
2017-11-06T01:10:30.037Z,11.57
2017-11-06T01:12:57.547Z,11.07
2017-11-06T01:15:25.058Z,10.67
2017-11-06T01:17:52.558Z,11.73
2017-11-06T01:20:20.792Z,10.03
2017-11-06T01:22:48.271Z,11.60
2017-11-06T01:25:15.762Z,11.30
2017-11-06T01:27:44.758Z,10.83
2017-11-06T01:30:13.015Z,11.60
2017-11-06T01:32:40.494Z,11.13
2017-11-06T01:35:07.986Z,11.00
2017-11-06T01:37:35.446Z,11.27
2017-11-06T01:40:02.919Z,11.20
2017-11-06T01:42:30.432Z,11.07
2017-11-06T01:44:57.907Z,10.60
2017-11-06T01:47:26.165Z,12.60
2017-11-06T01:49:53.663Z,12.03
2017-11-06T01:52:21.885Z,11.37
2017-11-06T01:54:49.346Z,11.20
2017-11-06T01:57:16.858Z,11.43
2017-11-06T01:59:45.116Z,10.90
2017-11-06T02:02:12.548Z,11.47
2017-11-06T02:04:40.032Z,12.17
2017-11-06T02:07:07.485Z,12.40
2017-11-06T02:09:34.972Z,11.43
2017-11-06T02:12:02.455Z,11.33
2017-11-06T02:14:30.717Z,11.90
2017-11-06T02:16:58.166Z,11.60
2017-11-06T02:19:25.660Z,12.37
2017-11-06T02:21:53.931Z,12.20
2017-11-06T02:24:21.385Z,13.37
2017-11-06T02:26:48.881Z,12.37
2017-11-06T02:29:16.346Z,11.17
2017-11-06T02:31:43.839Z,12.47
2017-11-06T02:34:11.319Z,11.60
2017-11-06T02:36:38.757Z,13.30
2017-11-06T02:39:06.274Z,12.80
2017-11-06T02:41:34.509Z,11.03
2017-11-06T02:44:01.974Z,11.50
2017-11-06T02:46:29.443Z,11.80
2017-11-06T02:48:56.893Z,12.27
2017-11-06T02:51:24.384Z,11.60
2017-11-06T02:53:51.842Z,11.50
2017-11-06T02:56:19.440Z,11.40
2017-11-06T02:58:47.765Z,12.50
2017-11-06T03:01:15.187Z,12.40
2017-11-06T03:03:43.403Z,12.77
2017-11-06T03:06:10.911Z,12.00
2017-11-06T03:08:38.361Z,11.80
2017-11-06T03:11:05.809Z,10.80
2017-11-06T03:13:33.302Z,14.43
2017-11-06T03:16:00.748Z,11.97
2017-11-06T03:18:28.235Z,12.23
2017-11-06T03:20:56.460Z,12.77
2017-11-06T03:23:24.663Z,11.97
2017-11-06T03:25:52.145Z,11.43
2017-11-06T03:28:20.383Z,11.83
2017-11-06T03:30:47.878Z,11.57
2017-11-06T03:33:15.336Z,11.70
2017-11-06T03:35:42.845Z,10.20
2017-11-06T03:38:10.296Z,12.23
2017-11-06T03:40:37.778Z,11.70
2017-11-06T03:43:05.269Z,12.17
2017-11-06T03:45:32.744Z,11.80
2017-11-06T03:48:00.207Z,12.83
2017-11-06T03:50:27.705Z,12.40
2017-11-06T03:52:55.253Z,12.70
2017-11-06T03:55:23.481Z,12.17
2017-11-06T03:57:50.963Z,11.80
2017-11-06T04:00:18.467Z,12.77
2017-11-06T04:02:46.674Z,11.80
2017-11-06T04:05:14.171Z,13.30
2017-11-06T04:07:41.653Z,11.97
2017-11-06T04:10:10.278Z,11.17
2017-11-06T04:12:38.497Z,11.40
2017-11-06T04:15:05.964Z,13.87
2017-11-06T04:17:33.448Z,13.40
2017-11-06T04:20:00.928Z,12.90
2017-11-06T04:22:29.129Z,13.03
2017-11-06T04:24:56.607Z,12.90
2017-11-06T04:27:24.086Z,11.37
2017-11-06T04:29:51.602Z,14.07
2017-11-06T04:32:19.818Z,12.77
2017-11-06T04:34:47.349Z,11.57
2017-11-06T04:37:14.909Z,12.47
2017-11-06T04:39:43.140Z,13.90
2017-11-06T04:42:10.641Z,11.63
2017-11-06T04:44:38.143Z,13.47
2017-11-06T04:47:06.367Z,13.00
2017-11-06T04:49:33.817Z,13.47
2017-11-06T04:52:01.296Z,13.00
2017-11-06T04:54:28.790Z,12.27
2017-11-06T04:56:56.251Z,13.53
2017-11-06T04:59:23.750Z,13.27
2017-11-06T05:01:51.216Z,13.20
2017-11-06T05:04:18.683Z,11.83
2017-11-06T05:06:46.156Z,11.80
2017-11-06T05:09:13.617Z,13.47
2017-11-06T05:11:41.098Z,12.07
2017-11-06T05:14:08.573Z,12.67
2017-11-06T05:16:36.801Z,15.20
2017-11-06T05:19:04.309Z,11.80
2017-11-06T05:21:32.525Z,13.90
2017-11-06T05:24:00.041Z,12.07
2017-11-06T05:26:27.530Z,13.63
2017-11-06T05:28:55.000Z,13.57
2017-11-06T05:31:22.472Z,13.00
2017-11-06T05:33:49.930Z,14.00
2017-11-06T05:36:17.443Z,13.03
2017-11-06T05:38:44.912Z,14.47
2017-11-06T05:41:12.373Z,14.10
2017-11-06T05:43:39.865Z,15.33
2017-11-06T05:46:07.429Z,15.10
2017-11-06T05:48:35.661Z,13.93
2017-11-06T05:51:03.154Z,12.90
2017-11-06T05:53:30.605Z,13.67
2017-11-06T05:55:58.056Z,13.00
2017-11-06T05:58:25.547Z,13.73
2017-11-06T06:00:53.759Z,13.23
2017-11-06T06:03:21.247Z,12.40
2017-11-06T06:05:48.731Z,13.50
2017-11-06T06:08:16.219Z,13.60
2017-11-06T06:10:44.484Z,15.37
2017-11-06T06:13:11.933Z,13.77
2017-11-06T06:15:40.317Z,14.80
2017-11-06T06:18:07.811Z,13.90
2017-11-06T06:20:36.063Z,15.30
2017-11-06T06:23:03.543Z,13.10
2017-11-06T06:25:31.100Z,14.57
2017-11-06T06:27:58.553Z,14.70
2017-11-06T06:30:26.049Z,13.10
2017-11-06T06:32:54.294Z,15.20
2017-11-06T06:35:21.756Z,14.00
2017-11-06T06:37:49.261Z,13.57
2017-11-06T06:40:16.728Z,13.57
2017-11-06T06:42:44.206Z,14.57
2017-11-06T06:45:11.700Z,13.83
2017-11-06T06:47:39.168Z,14.90
2017-11-06T06:50:06.661Z,14.27
2017-11-06T06:52:34.955Z,14.10
2017-11-06T06:55:02.418Z,14.60
2017-11-06T06:57:29.940Z,13.77
2017-11-06T06:59:57.425Z,14.30
2017-11-06T07:02:25.671Z,15.37
2017-11-06T07:04:53.180Z,15.90
2017-11-06T07:07:21.456Z,14.70
2017-11-06T07:09:49.699Z,16.27
2017-11-06T07:12:17.253Z,15.57
2017-11-06T07:14:45.472Z,14.57
2017-11-06T07:17:12.949Z,14.73
2017-11-06T07:19:41.295Z,13.67
2017-11-06T07:22:08.772Z,14.60
2017-11-06T07:24:36.270Z,14.50
2017-11-06T07:27:03.725Z,15.90
2017-11-06T07:29:31.351Z,13.80
2017-11-06T07:31:58.876Z,15.40
2017-11-06T07:34:27.124Z,15.23
2017-11-06T07:36:55.354Z,14.33
2017-11-06T07:39:22.857Z,15.13
2017-11-06T07:41:51.129Z,14.40
2017-11-06T07:44:18.631Z,14.53
2017-11-06T07:46:46.154Z,13.87
2017-11-06T07:49:13.607Z,16.50
2017-11-06T07:51:41.137Z,15.17
2017-11-06T07:54:08.644Z,15.23
2017-11-06T07:56:36.108Z,15.37
2017-11-06T07:59:03.557Z,15.43
2017-11-06T08:01:31.124Z,15.23
2017-11-06T08:03:58.581Z,15.37
2017-11-06T08:06:26.081Z,15.37
2017-11-06T08:08:54.484Z,14.53
2017-11-06T08:11:22.025Z,14.27
2017-11-06T08:13:50.262Z,14.00
2017-11-06T08:16:17.773Z,15.07
2017-11-06T08:18:45.235Z,14.70
2017-11-06T08:21:13.475Z,14.33
2017-11-06T08:23:40.973Z,15.47
2017-11-06T08:26:09.362Z,15.50
2017-11-06T08:28:37.604Z,19.57
2017-11-06T08:31:05.131Z,18.37
2017-11-06T08:33:32.581Z,14.40
2017-11-06T08:36:00.073Z,14.77
2017-11-06T08:38:27.806Z,15.70
2017-11-06T08:40:55.292Z,14.67
2017-11-06T08:43:22.775Z,17.17
2017-11-06T08:45:50.280Z,15.17
2017-11-06T08:48:18.559Z,16.20
2017-11-06T08:50:46.765Z,15.37
2017-11-06T08:53:14.229Z,15.37
2017-11-06T08:55:41.745Z,14.90
2017-11-06T08:58:10.772Z,16.03
2017-11-06T09:00:38.235Z,13.27
2017-11-06T09:03:06.488Z,14.30
2017-11-06T09:05:33.981Z,14.97
2017-11-06T09:08:01.444Z,13.63
2017-11-06T09:10:29.112Z,14.80
2017-11-06T09:12:56.608Z,13.13
2017-11-06T09:15:24.065Z,11.93
2017-11-06T09:17:51.586Z,13.70
2017-11-06T09:20:19.877Z,12.20
2017-11-06T09:22:47.372Z,12.87
2017-11-06T09:25:14.880Z,12.10
2017-11-06T09:27:42.369Z,11.93
2017-11-06T09:30:09.863Z,12.07
2017-11-06T09:32:37.385Z,13.37
2017-11-06T09:35:05.645Z,13.37
2017-11-06T09:37:33.185Z,14.27
2017-11-06T09:40:00.634Z,13.33
2017-11-06T09:42:28.119Z,13.27
2017-11-06T09:44:55.598Z,12.90
2017-11-06T09:47:23.108Z,12.20
2017-11-06T09:49:50.582Z,13.10
2017-11-06T09:52:18.068Z,13.00
2017-11-06T09:54:45.772Z,13.13
2017-11-06T09:57:14.020Z,12.40
2017-11-06T09:59:43.031Z,11.50
2017-11-06T10:02:10.546Z,12.00
2017-11-06T10:04:38.010Z,12.87
2017-11-06T10:07:05.494Z,12.43
2017-11-06T10:09:32.960Z,12.13
2017-11-06T10:12:00.463Z,13.03
2017-11-06T10:14:28.706Z,13.80
2017-11-06T10:16:56.216Z,13.93
2017-11-06T10:19:23.677Z,11.60
2017-11-06T10:21:51.146Z,11.30
2017-11-06T10:24:18.643Z,11.90
2017-11-06T10:26:46.108Z,10.83
2017-11-06T10:29:13.572Z,10.63
2017-11-06T10:31:41.054Z,10.80
2017-11-06T10:34:08.546Z,11.17
2017-11-06T10:36:36.840Z,10.40
2017-11-06T10:39:04.319Z,10.90
2017-11-06T10:41:31.823Z,9.93
2017-11-06T10:43:59.316Z,9.97
2017-11-06T10:46:27.557Z,9.80
2017-11-06T10:48:55.041Z,9.30
2017-11-06T10:51:22.489Z,10.40
2017-11-06T10:53:50.032Z,10.00
2017-11-06T10:56:17.491Z,10.00
2017-11-06T10:58:44.931Z,13.27
2017-11-06T11:01:12.422Z,10.50
2017-11-06T11:03:39.888Z,10.40
2017-11-06T11:06:07.418Z,10.17
2017-11-06T11:08:34.877Z,10.70
2017-11-06T11:11:02.425Z,10.60
2017-11-06T11:13:30.712Z,11.27
2017-11-06T11:15:58.167Z,11.60
2017-11-06T11:18:26.413Z,10.27
2017-11-06T11:20:53.847Z,10.53
2017-11-06T11:23:21.315Z,10.30
2017-11-06T11:25:48.786Z,9.10
2017-11-06T11:28:16.272Z,10.80
2017-11-06T11:30:43.789Z,9.50
2017-11-06T11:33:11.249Z,9.50
2017-11-06T11:35:38.704Z,9.23
2017-11-06T11:38:06.189Z,8.60
2017-11-06T11:40:33.661Z,8.53
2017-11-06T11:43:01.143Z,9.33
2017-11-06T11:45:28.662Z,8.40
2017-11-06T11:47:56.121Z,7.23
2017-11-06T11:50:23.576Z,8.00
2017-11-06T11:52:51.052Z,8.50
2017-11-06T11:55:18.561Z,9.70
2017-11-06T11:57:46.043Z,7.90
2017-11-06T12:00:14.272Z,8.37
2017-11-06T12:02:41.783Z,8.20
2017-11-06T12:05:10.056Z,8.10
2017-11-06T12:07:38.338Z,7.60
2017-11-06T12:10:06.624Z,8.60
2017-11-06T12:12:34.100Z,7.80
2017-11-06T12:15:02.345Z,7.40
2017-11-06T12:17:29.855Z,7.53
2017-11-06T12:19:58.141Z,7.13
2017-11-06T12:22:25.586Z,6.50
2017-11-06T12:24:53.038Z,5.87
2017-11-06T12:27:21.321Z,5.70
2017-11-06T12:29:49.603Z,4.77
2017-11-06T12:32:17.888Z,4.67
2017-11-06T12:34:45.350Z,4.10
2017-11-06T12:37:13.571Z,3.67
2017-11-06T12:39:41.332Z,4.20
2017-11-06T12:42:08.823Z,3.90
2017-11-06T12:44:36.270Z,3.37
2017-11-06T12:47:03.793Z,3.37
2017-11-06T12:49:32.011Z,4.07
2017-11-06T12:51:59.553Z,4.03
2017-11-06T12:54:26.998Z,4.20
2017-11-06T12:56:54.488Z,4.33
2017-11-06T12:59:21.946Z,4.47
2017-11-06T13:01:49.488Z,4.37
2017-11-06T13:04:16.953Z,3.47
2017-11-06T13:06:44.471Z,3.27
2017-11-06T13:09:11.963Z,3.50
2017-11-06T13:11:40.265Z,4.27
2017-11-06T13:14:09.088Z,3.57
2017-11-06T13:16:36.626Z,4.30
2017-11-06T13:19:04.047Z,4.27
2017-11-06T13:21:31.558Z,3.23
2017-11-06T13:23:59.229Z,3.80
2017-11-06T13:26:27.496Z,4.50
2017-11-06T13:28:55.742Z,3.97
2017-11-06T13:31:23.212Z,3.40
2017-11-06T13:33:51.454Z,4.03
2017-11-06T13:36:18.943Z,3.23
2017-11-06T13:38:46.458Z,3.73
2017-11-06T13:41:14.010Z,3.80
2017-11-06T13:43:41.502Z,4.00
2017-11-06T13:46:08.987Z,4.93
2017-11-06T13:48:36.455Z,4.80
2017-11-06T13:51:04.013Z,4.73
2017-11-06T13:53:31.540Z,5.17
2017-11-06T13:55:59.023Z,4.33
2017-11-06T13:58:26.536Z,4.13
2017-11-06T14:00:54.775Z,3.80
2017-11-06T14:03:22.314Z,3.57
2017-11-06T14:05:49.783Z,4.20
2017-11-06T14:08:17.238Z,3.67
2017-11-06T14:10:44.752Z,5.17
2017-11-06T14:13:12.245Z,4.90
2017-11-06T14:15:40.490Z,3.97
2017-11-06T14:18:07.980Z,4.27
2017-11-06T14:20:36.237Z,5.43
2017-11-06T14:23:03.734Z,4.07
2017-11-06T14:25:31.386Z,3.90
2017-11-06T14:27:58.897Z,4.00
2017-11-06T14:30:26.365Z,4.03
2017-11-06T14:32:53.823Z,3.87
2017-11-06T14:35:21.334Z,5.17
2017-11-06T14:37:49.621Z,4.80
2017-11-06T14:40:17.083Z,3.40
2017-11-06T14:42:44.523Z,3.17
2017-11-06T14:45:12.778Z,3.93
2017-11-06T14:47:40.292Z,4.63
2017-11-06T14:50:07.749Z,3.70
2017-11-06T14:52:35.267Z,4.50
2017-11-06T14:55:02.748Z,4.30
2017-11-06T14:57:30.261Z,4.23
2017-11-06T14:59:57.722Z,4.70
2017-11-06T15:02:25.282Z,3.37
2017-11-06T15:04:52.759Z,5.73
2017-11-06T15:07:20.272Z,8.83
2017-11-06T15:09:48.560Z,5.60
2017-11-06T15:12:16.051Z,4.70
2017-11-06T15:14:43.512Z,4.70
2017-11-06T15:17:10.979Z,4.73
2017-11-06T15:19:38.527Z,3.40
2017-11-06T15:22:05.948Z,3.23
2017-11-06T15:24:33.397Z,3.90
2017-11-06T15:27:00.996Z,3.83
2017-11-06T15:29:28.413Z,3.60
2017-11-06T15:31:55.945Z,4.83
2017-11-06T15:34:23.489Z,5.20
2017-11-06T15:36:50.933Z,4.27
2017-11-06T15:39:19.216Z,3.70
2017-11-06T15:41:47.500Z,4.17
2017-11-06T15:44:14.969Z,4.63
2017-11-06T15:46:43.215Z,4.33
2017-11-06T15:49:10.723Z,4.23
2017-11-06T15:51:38.967Z,3.60
2017-11-06T15:54:06.473Z,3.80
2017-11-06T15:56:34.774Z,3.13
2017-11-06T15:59:03.004Z,4.33
2017-11-06T16:01:30.459Z,4.60
2017-11-06T16:03:57.915Z,4.03
2017-11-06T16:06:25.422Z,3.87
2017-11-06T16:08:52.889Z,3.80
2017-11-06T16:11:20.346Z,4.00
2017-11-06T16:13:47.838Z,4.17
2017-11-06T16:16:15.289Z,5.10
2017-11-06T16:18:42.839Z,10.57
2017-11-06T16:21:11.127Z,6.40
2017-11-06T16:23:38.616Z,5.60
2017-11-06T16:26:06.121Z,5.90
2017-11-06T16:28:33.632Z,5.50
2017-11-06T16:31:01.085Z,5.87
2017-11-06T16:33:30.336Z,6.47
2017-11-06T16:35:57.819Z,6.87
2017-11-06T16:38:25.264Z,6.37
2017-11-06T16:40:53.077Z,5.90
2017-11-06T16:43:20.561Z,7.30
2017-11-06T16:45:48.084Z,7.30
2017-11-06T16:48:16.563Z,6.73
2017-11-06T16:50:44.138Z,5.67
2017-11-06T16:53:12.408Z,7.00
2017-11-06T16:55:40.627Z,9.13
2017-11-06T16:58:08.093Z,6.87
2017-11-06T17:00:36.334Z,7.20
2017-11-06T17:03:03.826Z,8.17
2017-11-06T17:05:31.291Z,10.00
2017-11-06T17:07:58.798Z,11.00
2017-11-06T17:10:26.282Z,11.80
2017-11-06T17:12:53.758Z,10.30
2017-11-06T17:15:22.004Z,10.20
2017-11-06T17:17:49.492Z,9.70
2017-11-06T17:20:20.722Z,9.60
2017-11-06T17:22:48.213Z,9.70
2017-11-06T17:25:15.724Z,11.77
2017-11-06T17:27:43.201Z,11.90
2017-11-06T17:30:10.677Z,12.07
2017-11-06T17:32:38.156Z,12.70
2017-11-06T17:35:06.399Z,12.20
2017-11-06T17:37:33.909Z,12.20
2017-11-06T17:40:02.139Z,9.73
2017-11-06T17:42:29.613Z,11.43
2017-11-06T17:44:57.086Z,11.40
2017-11-06T17:47:24.585Z,10.60
2017-11-06T17:49:52.059Z,12.40
2017-11-06T17:52:19.578Z,11.20
2017-11-06T17:54:47.068Z,18.10
2017-11-06T17:57:14.664Z,12.73
2017-11-06T17:59:42.852Z,14.83
2017-11-06T18:02:10.290Z,15.37
2017-11-06T18:04:37.805Z,16.60
2017-11-06T18:07:05.267Z,15.07
2017-11-06T18:09:33.540Z,16.13
2017-11-06T18:12:01.037Z,13.40
2017-11-06T18:14:28.547Z,11.97
2017-11-06T18:16:56.007Z,10.97
2017-11-06T18:19:23.506Z,12.47
2017-11-06T18:21:50.956Z,13.17
2017-11-06T18:24:18.491Z,15.27
2017-11-06T18:26:45.964Z,13.83
2017-11-06T18:29:13.436Z,12.83
2017-11-06T18:31:40.970Z,14.00
2017-11-06T18:34:08.441Z,16.50
2017-11-06T18:36:35.891Z,15.10
2017-11-06T18:39:03.408Z,13.10
2017-11-06T18:41:31.711Z,13.13
2017-11-06T18:43:59.188Z,18.60
2017-11-06T18:46:26.700Z,16.90
2017-11-06T18:48:54.222Z,14.83
2017-11-06T18:51:22.580Z,13.00
2017-11-06T18:53:50.023Z,14.37
2017-11-06T18:56:17.517Z,17.17
2017-11-06T18:58:45.163Z,15.67
2017-11-06T19:01:12.615Z,15.40
2017-11-06T19:03:40.903Z,15.70
2017-11-06T19:06:09.243Z,16.20
2017-11-06T19:08:36.757Z,16.03
2017-11-06T19:11:04.234Z,16.83
2017-11-06T19:13:31.731Z,15.27
2017-11-06T19:15:59.184Z,16.40
2017-11-06T19:18:26.703Z,18.63
2017-11-06T19:20:55.137Z,26.00
2017-11-06T19:23:23.361Z,19.30
2017-11-06T19:25:50.812Z,18.17
2017-11-06T19:28:18.383Z,16.40
2017-11-06T19:30:45.854Z,15.57
2017-11-06T19:33:13.406Z,17.70
2017-11-06T19:35:40.911Z,17.03
2017-11-06T19:38:08.381Z,18.77
2017-11-06T19:40:36.025Z,17.27
2017-11-06T19:43:04.077Z,15.77
2017-11-06T19:45:31.580Z,14.77
2017-11-06T19:47:59.100Z,15.07
2017-11-06T19:50:27.410Z,15.00
2017-11-06T19:52:54.892Z,15.87
2017-11-06T19:55:22.398Z,14.53
2017-11-06T19:57:49.837Z,15.90
2017-11-06T20:00:17.328Z,14.00
2017-11-06T20:02:44.868Z,14.50
2017-11-06T20:05:12.311Z,21.73
2017-11-06T20:07:39.788Z,27.10
2017-11-06T20:10:07.326Z,16.80
2017-11-06T20:12:34.811Z,17.23
2017-11-06T20:15:02.269Z,16.90
2017-11-06T20:17:29.794Z,18.23
2017-11-06T20:19:57.301Z,16.57
2017-11-06T20:22:24.793Z,16.17
2017-11-06T20:24:52.299Z,14.67
2017-11-06T20:27:19.772Z,16.57
2017-11-06T20:29:47.273Z,16.60
2017-11-06T20:32:14.826Z,17.90
2017-11-06T20:34:42.337Z,18.60
2017-11-06T20:37:09.789Z,19.63
2017-11-06T20:39:38.074Z,17.67
2017-11-06T20:42:05.639Z,28.03
2017-11-06T20:44:33.914Z,26.70
2017-11-06T20:47:01.364Z,31.60
2017-11-06T20:49:28.880Z,28.30
2017-11-06T20:51:56.376Z,21.80
2017-11-06T20:54:25.396Z,20.93
2017-11-06T20:56:52.923Z,18.60
2017-11-06T20:59:20.447Z,18.80
2017-11-06T21:01:47.936Z,18.10
2017-11-06T21:04:15.414Z,17.80
2017-11-06T21:06:42.906Z,17.57
2017-11-06T21:09:10.418Z,15.90
2017-11-06T21:11:37.934Z,17.30
2017-11-06T21:14:05.388Z,16.70
2017-11-06T21:16:33.370Z,17.93
2017-11-06T21:19:00.830Z,16.27
2017-11-06T21:21:28.703Z,16.67
2017-11-06T21:23:56.714Z,14.70
2017-11-06T21:26:24.161Z,16.03
2017-11-06T21:28:52.423Z,15.87
2017-11-06T21:31:19.925Z,17.00
2017-11-06T21:33:47.442Z,14.33
2017-11-06T21:36:14.934Z,14.47
2017-11-06T21:38:42.410Z,14.70
2017-11-06T21:41:09.909Z,14.33
2017-11-06T21:43:37.405Z,14.67
2017-11-06T21:46:05.702Z,14.00
2017-11-06T21:48:33.229Z,14.33
2017-11-06T21:51:00.705Z,14.30
2017-11-06T21:53:28.971Z,13.30
2017-11-06T21:55:56.432Z,14.03
2017-11-06T21:58:23.928Z,14.10
2017-11-06T22:00:52.171Z,13.83
2017-11-06T22:03:19.657Z,14.10
2017-11-06T22:05:47.144Z,14.90
2017-11-06T22:08:14.639Z,13.10
2017-11-06T22:10:42.118Z,14.37
2017-11-06T22:13:09.614Z,14.23
2017-11-06T22:15:37.059Z,14.13
2017-11-06T22:18:04.573Z,12.47
2017-11-06T22:20:32.049Z,13.83
2017-11-06T22:22:59.518Z,14.53
2017-11-06T22:25:27.001Z,13.37
2017-11-06T22:27:54.536Z,14.10
2017-11-06T22:30:21.992Z,12.90
2017-11-06T22:32:49.492Z,12.77
2017-11-06T22:35:17.002Z,13.57
2017-11-06T22:37:45.208Z,13.27
2017-11-06T22:40:12.733Z,13.60
2017-11-06T22:42:40.975Z,15.00
2017-11-06T22:45:08.423Z,13.57
2017-11-06T22:47:35.925Z,16.00
2017-11-06T22:50:03.386Z,15.60
2017-11-06T22:52:30.875Z,14.67
2017-11-06T22:54:58.401Z,13.27
2017-11-06T22:57:25.893Z,14.60
2017-11-06T22:59:54.176Z,13.27
2017-11-06T23:02:21.615Z,13.10
2017-11-06T23:04:49.871Z,14.53
2017-11-06T23:07:17.371Z,13.53
2017-11-06T23:09:45.599Z,13.67
2017-11-06T23:12:13.099Z,13.20
2017-11-06T23:14:41.376Z,13.40
2017-11-06T23:17:08.843Z,13.00
2017-11-06T23:19:36.340Z,14.00
2017-11-06T23:22:03.806Z,14.27
2017-11-06T23:24:31.667Z,14.40
2017-11-06T23:26:59.175Z,13.90
2017-11-06T23:29:26.631Z,13.20
2017-11-06T23:31:54.126Z,13.07
2017-11-06T23:34:21.599Z,12.30
2017-11-06T23:36:49.863Z,13.87
2017-11-06T23:39:17.373Z,16.37
2017-11-06T23:41:44.836Z,17.27
2017-11-06T23:44:12.320Z,16.33
2017-11-06T23:46:39.785Z,17.10
2017-11-06T23:49:07.259Z,16.00
2017-11-06T23:51:34.718Z,16.87
2017-11-06T23:54:02.215Z,13.00
2017-11-06T23:56:30.473Z,14.10
2017-11-06T23:58:57.946Z,15.00
